Time;durP1;ratioP1;P1;durP2;ratioP2;P2;SDS_P1;SDS_P2;PMS_P1;PMS_P2;Temp;Humidity;BMP_temperature;BMP_pressure;BME280_temperature;BME280_humidity;BME280_pressure;Samples;Min_cycle;Max_cycle;Signal;HPM_P1;HPM_P2
2022/03/29 00:01:59;;;;;;;55.42;27.27;;;;;;;5.43;100.00;101448.69;5027000;28;20345;-75
2022/03/29 00:04:29;;;;;;;50.75;27.73;;;;;;;5.44;100.00;101445.16;5043182;28;20047;-74
2022/03/29 00:06:56;;;;;;;56.10;27.10;;;;;;;5.46;100.00;101434.63;5048004;28;20032;-76
2022/03/29 00:09:22;;;;;;;54.10;27.23;;;;;;;5.37;100.00;101419.59;5026596;28;20044;-75
2022/03/29 00:11:51;;;;;;;55.80;28.17;;;;;;;5.30;100.00;101410.53;5045310;28;20124;-76
2022/03/29 00:14:18;;;;;;;51.75;26.80;;;;;;;5.29;100.00;101401.03;5045135;28;20044;-75
2022/03/29 00:16:53;;;;;;;57.33;27.52;;;;;;;5.20;100.00;101405.91;5032962;28;20060;-75
2022/03/29 00:19:22;;;;;;;56.53;27.60;;;;;;;5.38;100.00;101421.28;5027897;28;20041;-75
2022/03/29 00:21:48;;;;;;;55.00;28.13;;;;;;;5.56;100.00;101424.50;5025667;28;20453;-75
2022/03/29 00:24:14;;;;;;;53.65;26.30;;;;;;;5.45;100.00;101410.38;5023595;28;20040;-74
2022/03/29 00:26:39;;;;;;;45.95;25.80;;;;;;;5.41;100.00;101419.31;5076518;28;20036;-75
2022/03/29 00:29:05;;;;;;;54.05;26.38;;;;;;;5.36;100.00;101408.38;5059738;28;20397;-75
2022/03/29 00:31:30;;;;;;;56.00;26.30;;;;;;;5.36;100.00;101408.38;5061930;28;20044;-75
2022/03/29 00:33:56;;;;;;;54.85;26.98;;;;;;;5.44;100.00;101406.13;5025879;28;20055;-75
2022/03/29 00:36:22;;;;;;;55.08;25.77;;;;;;;5.43;100.00;101407.06;5044451;28;20044;-75
2022/03/29 00:38:47;;;;;;;49.83;25.63;;;;;;;5.43;100.00;101401.84;5031234;28;20040;-75
2022/03/29 00:41:14;;;;;;;53.75;27.00;;;;;;;5.43;100.00;101398.41;5062299;28;20470;-75
2022/03/29 00:43:40;;;;;;;47.67;25.10;;;;;;;5.35;100.00;101388.50;5027569;28;20098;-76
2022/03/29 00:46:06;;;;;;;62.03;26.60;;;;;;;5.33;100.00;101382.56;5046439;28;20037;-76
2022/03/29 00:48:32;;;;;;;59.17;26.75;;;;;;;5.39;100.00;101378.75;5036102;28;20029;-74
2022/03/29 00:50:58;;;;;;;56.70;26.88;;;;;;;5.35;100.00;101379.84;5041904;28;20068;-74
2022/03/29 00:53:24;;;;;;;51.10;25.30;;;;;;;5.45;100.00;101378.34;5031103;28;20512;-75
2022/03/29 00:55:51;;;;;;;55.25;26.60;;;;;;;5.40;100.00;101372.59;5039005;28;20116;-75
2022/03/29 00:58:17;;;;;;;50.45;25.55;;;;;;;5.41;100.00;101372.50;5061433;28;20044;-72
2022/03/29 01:00:44;;;;;;;56.28;25.08;;;;;;;5.38;100.00;101358.84;5049885;28;20448;-75
2022/03/29 01:03:10;;;;;;;53.78;26.80;;;;;;;5.35;100.00;101361.63;5048457;28;20040;-75
2022/03/29 01:05:36;;;;;;;51.90;24.90;;;;;;;5.36;100.00;101361.53;5063765;28;20040;-75
2022/03/29 01:08:02;;;;;;;51.35;25.02;;;;;;;5.46;100.00;101362.63;5033050;28;20067;-74
2022/03/29 01:10:28;;;;;;;52.47;25.45;;;;;;;5.43;100.00;101347.22;5030527;28;20037;-76
2022/03/29 01:12:55;;;;;;;49.88;25.10;;;;;;;5.38;100.00;101346.66;5049309;28;20033;-76
2022/03/29 01:15:26;;;;;;;50.67;24.35;;;;;;;5.35;100.00;101343.41;5031827;28;20370;-74
2022/03/29 01:17:56;;;;;;;50.15;23.45;;;;;;;5.37;100.00;101346.75;5047320;28;20093;-76
2022/03/29 01:20:27;;;;;;;54.55;24.17;;;;;;;5.29;100.00;101333.41;5044277;28;20569;-74
2022/03/29 01:22:55;;;;;;;55.45;23.92;;;;;;;5.42;100.00;101340.31;5044360;28;20052;-76
2022/03/29 01:25:31;;;;;;;52.70;24.60;;;;;;;5.47;100.00;101327.03;5037610;28;20731;-75
2022/03/29 01:28:02;;;;;;;52.38;24.38;;;;;;;5.36;100.00;101321.69;5034264;28;20457;-75
2022/03/29 01:30:29;;;;;;;52.30;23.25;;;;;;;5.44;100.00;101330.69;5034841;28;20063;-75
2022/03/29 01:33:09;;;;;;;50.83;24.20;;;;;;;5.14;100.00;101310.06;5036109;28;20036;-75
2022/03/29 01:35:39;;;;;;;44.65;22.30;;;;;;;5.17;100.00;101298.63;5037027;28;20032;-74
2022/03/29 01:38:06;;;;;;;42.55;20.00;;;;;;;5.43;100.00;101312.56;5052247;28;20032;-74
2022/03/29 01:40:35;;;;;;;45.47;20.63;;;;;;;5.44;100.00;101320.28;5035245;28;20131;-74
2022/03/29 01:43:02;;;;;;;41.85;20.60;;;;;;;5.41;100.00;101314.44;5026565;28;20640;-74
2022/03/29 01:45:30;;;;;;;45.38;21.45;;;;;;;5.38;100.00;101309.41;5020701;28;20070;-75
2022/03/29 01:47:56;;;;;;;47.33;20.42;;;;;;;5.40;100.00;101312.75;5051451;28;20055;-75
2022/03/29 01:50:22;;;;;;;38.08;20.45;;;;;;;5.36;100.00;101316.47;5055403;28;20037;-75
2022/03/29 01:52:49;;;;;;;43.58;19.83;;;;;;;5.44;100.00;101311.59;5067077;28;20086;-75
2022/03/29 01:55:16;;;;;;;42.30;19.27;;;;;;;5.43;100.00;101309.97;5048675;28;20058;-75
2022/03/29 01:57:43;;;;;;;44.33;20.60;;;;;;;5.38;100.00;101309.41;5052007;28;20430;-75
2022/03/29 02:02:56;;;;;;;51.30;21.75;;;;;;;5.30;100.00;101309.91;5046604;28;20123;-75
2022/03/29 02:05:22;;;;;;;42.70;21.75;;;;;;;5.33;100.00;101311.47;5049570;28;20071;-74
2022/03/29 02:07:48;;;;;;;42.70;20.65;;;;;;;5.58;100.00;101306.34;5048000;28;20028;-76
2022/03/29 02:10:19;;;;;;;48.55;22.63;;;;;;;5.35;100.00;101304.41;5058112;28;20055;-74
2022/03/29 02:12:46;;;;;;;44.63;21.25;;;;;;;5.34;100.00;101306.16;5043452;28;20060;-76
2022/03/29 02:15:12;;;;;;;44.05;21.20;;;;;;;5.45;100.00;101300.28;5061039;28;20060;-75
2022/03/29 02:17:39;;;;;;;40.40;18.60;;;;;;;5.41;100.00;101288.41;5033456;28;20025;-77
2022/03/29 02:20:06;;;;;;;42.60;19.15;;;;;;;5.31;100.00;101295.94;5025111;28;20064;-74
2022/03/29 02:22:33;;;;;;;41.67;17.83;;;;;;;5.41;100.00;101296.22;5053283;28;20036;-75
2022/03/29 02:24:59;;;;;;;39.53;17.42;;;;;;;5.34;100.00;101297.53;5032809;28;20040;-76
2022/03/29 02:27:25;;;;;;;34.20;17.13;;;;;;;5.34;100.00;101287.97;5034849;28;20429;-74
2022/03/29 02:29:51;;;;;;;37.22;17.30;;;;;;;5.45;100.00;101287.28;5036537;28;20478;-73
2022/03/29 02:32:16;;;;;;;39.85;17.58;;;;;;;5.45;100.00;101277.69;5027032;28;20032;-74
2022/03/29 02:34:45;;;;;;;33.83;16.35;;;;;;;5.41;100.00;101286.63;5037130;28;20048;-75
2022/03/29 02:37:11;;;;;;;40.17;16.80;;;;;;;5.35;100.00;101276.63;5033510;28;20044;-75
2022/03/29 02:39:37;;;;;;;36.53;18.40;;;;;;;5.34;100.00;101277.56;5034478;28;20587;-75
2022/03/29 02:42:04;;;;;;;38.75;19.45;;;;;;;5.41;100.00;101281.44;5058404;28;20639;-75
2022/03/29 02:44:30;;;;;;;44.65;18.55;;;;;;;5.40;100.00;101278.94;5064444;28;20107;-75
2022/03/29 02:46:56;;;;;;;41.78;19.23;;;;;;;5.42;100.00;101277.06;5052751;28;20058;-75
2022/03/29 02:49:23;;;;;;;36.22;19.17;;;;;;;5.43;100.00;101270.94;5033323;28;21127;-74
2022/03/29 02:51:49;;;;;;;39.92;18.65;;;;;;;5.46;100.00;101275.91;5029628;28;20067;-74
2022/03/29 02:54:15;;;;;;;40.00;19.60;;;;;;;5.48;100.00;101271.44;5065795;28;20039;-77
2022/03/29 02:56:41;;;;;;;38.00;17.88;;;;;;;5.43;100.00;101271.75;5047642;28;20036;-75
2022/03/29 02:59:06;;;;;;;43.72;18.77;;;;;;;5.43;100.00;101263.94;5028978;28;20469;-75
2022/03/29 03:01:32;;;;;;;41.35;19.23;;;;;;;5.41;100.00;101265.81;5039013;28;20037;-76
2022/03/29 03:03:58;;;;;;;41.42;18.38;;;;;;;5.45;100.00;101267.28;5051370;28;20036;-75
2022/03/29 03:06:24;;;;;;;44.08;18.50;;;;;;;5.45;100.00;101276.88;5029987;28;20401;-74
2022/03/29 03:08:50;;;;;;;35.92;17.92;;;;;;;5.39;100.00;101267.69;5045066;28;20029;-74
2022/03/29 03:11:16;;;;;;;43.97;18.05;;;;;;;5.43;100.00;101269.16;5036124;28;20111;-76
2022/03/29 03:13:41;;;;;;;42.30;18.45;;;;;;;5.35;100.00;101258.44;5066025;28;20039;-74
2022/03/29 03:16:08;;;;;;;39.08;17.88;;;;;;;5.37;100.00;101261.75;5034308;28;20036;-75
2022/03/29 03:18:34;;;;;;;40.85;17.95;;;;;;;5.23;100.00;101262.63;5038154;28;20063;-76
2022/03/29 03:20:59;;;;;;;33.15;16.50;;;;;;;5.22;100.00;101265.34;5051096;28;20390;-75
2022/03/29 03:23:25;;;;;;;40.70;16.88;;;;;;;5.23;100.00;101270.44;5066650;28;20438;-76
2022/03/29 03:25:51;;;;;;;38.20;17.33;;;;;;;5.06;100.00;101255.09;5067303;28;20032;-76
2022/03/29 03:28:17;;;;;;;35.60;15.80;;;;;;;5.07;100.00;101265.41;5066045;28;20374;-74
2022/03/29 03:30:43;;;;;;;40.20;14.85;;;;;;;4.94;100.00;101261.09;5032963;28;20043;-75
2022/03/29 03:33:11;;;;;;;35.58;12.95;;;;;;;4.85;100.00;101265.91;5034708;28;20409;-75
2022/03/29 03:35:37;;;;;;;31.65;12.43;;;;;;;4.86;100.00;101264.19;5050729;28;20048;-74
2022/03/29 03:38:02;;;;;;;29.02;10.57;;;;;;;4.79;100.00;101268.09;5051390;28;20032;-75
2022/03/29 03:40:28;;;;;;;25.35;9.90;;;;;;;4.70;100.00;101266.88;5038729;28;20667;-75
2022/03/29 03:42:53;;;;;;;27.10;9.98;;;;;;;4.59;100.00;101264.94;5062485;28;20036;-75
2022/03/29 03:45:19;;;;;;;24.38;10.05;;;;;;;4.45;100.00;101268.41;5064343;28;20037;-75
2022/03/29 03:47:46;;;;;;;31.88;9.15;;;;;;;4.36;100.00;101268.97;5034565;28;20024;-75
2022/03/29 03:50:11;;;;;;;33.70;9.43;;;;;;;4.19;100.00;101263.97;5063311;28;20032;-75
2022/03/29 03:52:37;;;;;;;24.67;8.90;;;;;;;4.09;100.00;101261.91;5083569;28;20517;-75
2022/03/29 03:55:04;;;;;;;28.17;8.15;;;;;;;3.94;100.00;101257.63;5030838;28;20046;-76
2022/03/29 03:57:30;;;;;;;30.65;8.13;;;;;;;3.87;100.00;101253.72;5046983;28;20516;-75
2022/03/29 03:59:56;;;;;;;29.00;8.15;;;;;;;3.74;100.00;101253.59;5064583;28;20036;-73
2022/03/29 04:02:23;;;;;;;28.10;8.00;;;;;;;3.67;100.00;101254.88;5043050;28;20079;-74
2022/03/29 04:04:48;;;;;;;28.13;8.63;;;;;;;3.55;100.00;101250.44;5040530;28;20044;-75
2022/03/29 04:07:14;;;;;;;33.60;7.78;;;;;;;3.49;100.00;101264.59;5062786;28;20044;-75
2022/03/29 04:09:40;;;;;;;34.05;7.75;;;;;;;3.51;100.00;101260.97;5064534;28;20090;-74
2022/03/29 04:12:07;;;;;;;31.25;7.90;;;;;;;3.58;100.00;101258.00;5031232;28;20028;-74
2022/03/29 04:14:32;;;;;;;28.33;7.05;;;;;;;3.43;100.00;101251.97;5057506;28;20032;-75
2022/03/29 04:16:58;;;;;;;33.90;6.53;;;;;;;3.40;100.00;101247.78;5049914;28;20040;-75
2022/03/29 04:19:24;;;;;;;27.33;6.10;;;;;;;3.40;100.00;101249.53;5048382;28;20477;-75
2022/03/29 04:21:50;;;;;;;37.25;6.43;;;;;;;3.40;100.00;101254.72;5033240;28;20060;-75
2022/03/29 04:24:16;;;;;;;31.27;6.13;;;;;;;3.25;100.00;101254.66;5064894;28;20060;-74
2022/03/29 04:26:42;;;;;;;31.90;6.82;;;;;;;3.23;100.00;101248.75;5025579;28;20021;-73
2022/03/29 04:29:07;;;;;;;37.03;6.05;;;;;;;3.26;100.00;101255.53;5043302;28;20573;-75
2022/03/29 04:31:33;;;;;;;29.58;6.80;;;;;;;3.33;100.00;101251.63;5043440;28;20033;-75
2022/03/29 04:34:00;;;;;;;40.55;6.53;;;;;;;3.32;100.00;101252.56;5066367;28;20063;-75
2022/03/29 04:36:28;;;;;;;38.17;6.40;;;;;;;3.31;100.00;101245.72;5047202;28;20127;-75
2022/03/29 04:38:56;;;;;;;45.72;6.57;;;;;;;3.36;100.00;101242.88;5074045;28;20461;-74
2022/03/29 04:41:22;;;;;;;40.58;6.85;;;;;;;3.39;100.00;101238.34;5078168;28;20855;-76
2022/03/29 04:43:48;;;;;;;48.78;6.13;;;;;;;3.29;100.00;101237.19;5060430;28;20032;-76
2022/03/29 04:46:13;;;;;;;37.88;5.93;;;;;;;3.33;100.00;101236.06;5043585;28;20047;-76
2022/03/29 04:48:39;;;;;;;46.80;6.50;;;;;;;3.33;100.00;101238.66;5048473;28;20480;-76
2022/03/29 04:51:04;;;;;;;42.40;5.78;;;;;;;3.29;100.00;101238.00;5060047;28;20032;-75
2022/03/29 04:53:30;;;;;;;51.72;6.68;;;;;;;3.25;100.00;101222.72;5039952;28;20145;-76
2022/03/29 04:55:56;;;;;;;45.00;6.13;;;;;;;3.13;100.00;101229.44;5066254;28;20058;-75
2022/03/29 04:58:23;;;;;;;45.60;6.28;;;;;;;3.06;100.00;101233.31;5062972;28;20151;-74
2022/03/29 05:00:48;;;;;;;43.75;5.85;;;;;;;3.11;100.00;101232.13;5058225;28;20028;-75
2022/03/29 05:03:14;;;;;;;41.95;5.90;;;;;;;3.09;100.00;101235.75;5035353;28;20036;-75
2022/03/29 05:05:40;;;;;;;49.53;6.75;;;;;;;3.02;100.00;101231.81;5062288;28;20059;-75
2022/03/29 05:08:06;;;;;;;42.30;5.53;;;;;;;2.92;100.00;101229.72;5067177;28;20143;-75
2022/03/29 05:10:32;;;;;;;50.55;6.35;;;;;;;2.91;100.00;101230.63;5064250;28;20565;-76
2022/03/29 05:12:57;;;;;;;43.90;5.40;;;;;;;2.92;100.00;101228.91;5042628;28;20541;-76
2022/03/29 05:15:23;;;;;;;49.60;6.60;;;;;;;2.76;100.00;101233.25;5046383;28;20133;-76
2022/03/29 05:17:49;;;;;;;33.22;5.43;;;;;;;2.70;100.00;101234.41;5048648;28;20028;-76
2022/03/29 05:20:16;;;;;;;40.83;5.55;;;;;;;2.69;100.00;101243.94;5065747;28;20060;-76
2022/03/29 05:22:42;;;;;;;43.13;5.13;;;;;;;2.60;100.00;101236.69;5047358;28;20032;-75
2022/03/29 05:25:08;;;;;;;43.17;5.38;;;;;;;2.59;100.00;101235.00;5065192;28;20029;-76
2022/03/29 05:27:34;;;;;;;49.85;6.30;;;;;;;2.53;100.00;101233.56;5048460;28;20509;-75
2022/03/29 05:29:59;;;;;;;41.35;5.72;;;;;;;2.53;100.00;101237.91;5066118;28;20024;-75
2022/03/29 05:32:25;;;;;;;54.70;5.65;;;;;;;2.59;100.00;101216.03;5063449;28;20147;-76
2022/03/29 05:34:50;;;;;;;53.70;4.97;;;;;;;2.60;100.00;101225.47;5043430;28;20367;-76
2022/03/29 05:37:16;;;;;;;45.72;5.57;;;;;;;2.64;100.00;101225.22;5049428;28;20043;-75
2022/03/29 05:39:43;;;;;;;39.78;6.18;;;;;;;2.61;100.00;101230.56;5066505;28;20081;-74
2022/03/29 05:42:12;;;;;;;49.05;5.78;;;;;;;2.71;100.00;101234.34;5060805;28;20054;-77
2022/03/29 05:44:38;;;;;;;43.70;5.40;;;;;;;2.63;100.00;101223.53;5040498;28;20036;-76
2022/03/29 05:49:52;;;;;;;47.58;6.18;;;;;;;2.63;100.00;101231.31;5064216;28;20060;-75
2022/03/29 05:52:18;;;;;;;46.65;5.68;;;;;;;2.78;100.00;101229.63;5064550;28;20815;-77
2022/03/29 05:54:45;;;;;;;33.20;4.85;;;;;;;2.77;100.00;101227.13;5049867;28;20036;-76
2022/03/29 05:57:12;;;;;;;30.92;4.68;;;;;;;2.83;100.00;101226.81;5026930;28;20413;-74
2022/03/29 05:59:38;;;;;;;34.05;4.90;;;;;;;2.91;100.00;101228.03;5066309;28;20033;-75
2022/03/29 06:02:06;;;;;;;29.42;4.90;;;;;;;2.95;100.00;101243.44;5063770;28;20551;-76
2022/03/29 06:04:32;;;;;;;37.50;5.28;;;;;;;3.08;100.00;101228.88;5030909;28;20040;-76
2022/03/29 06:06:58;;;;;;;32.58;5.30;;;;;;;3.10;100.00;101238.22;5045418;28;20037;-77
2022/03/29 06:09:26;;;;;;;38.47;5.40;;;;;;;3.26;100.00;101234.78;5060340;28;20391;-76
2022/03/29 06:11:52;;;;;;;36.60;4.68;;;;;;;3.41;100.00;101230.44;5061206;28;20119;-76
2022/03/29 06:14:18;;;;;;;34.63;4.88;;;;;;;3.48;100.00;101236.97;5046949;28;20490;-75
2022/03/29 06:16:44;;;;;;;39.30;4.88;;;;;;;3.56;100.00;101234.78;5035687;28;20128;-73
2022/03/29 06:19:10;;;;;;;35.40;4.93;;;;;;;3.68;100.00;101234.03;5064836;28;20028;-77
2022/03/29 06:21:37;;;;;;;45.40;5.40;;;;;;;3.76;100.00;101228.41;5049783;28;20523;-76
2022/03/29 06:24:04;;;;;;;34.58;4.75;;;;;;;3.88;100.00;101229.44;5071662;28;20032;-76
2022/03/29 06:26:30;;;;;;;35.60;4.55;;;;;;;3.98;100.00;101229.75;5060353;28;20067;-76
2022/03/29 06:28:57;;;;;;;31.73;4.38;;;;;;;4.18;100.00;101233.72;5036860;28;20098;-76
2022/03/29 06:31:22;;;;;;;31.50;4.05;;;;;;;4.14;100.00;101233.06;5046129;28;20047;-75
2022/03/29 06:33:49;;;;;;;35.90;4.50;;;;;;;4.23;100.00;101235.09;5052634;28;20039;-76
2022/03/29 06:36:16;;;;;;;34.88;4.47;;;;;;;4.35;100.00;101232.69;5039391;28;20486;-75
2022/03/29 06:38:43;;;;;;;34.05;3.92;;;;;;;4.42;100.00;101232.22;5050162;28;20040;-75
2022/03/29 06:41:10;;;;;;;34.55;4.72;;;;;;;4.46;100.00;101238.91;5062600;28;20043;-76
2022/03/29 06:43:36;;;;;;;30.13;3.55;;;;;;;4.64;100.00;101230.91;5066351;28;20540;-76
2022/03/29 06:46:03;;;;;;;33.83;3.45;;;;;;;4.66;100.00;101234.22;5046998;28;20045;-76
2022/03/29 06:48:29;;;;;;;33.78;3.85;;;;;;;4.66;100.00;101231.63;5060380;28;20410;-76
2022/03/29 06:50:55;;;;;;;32.10;3.65;;;;;;;4.87;100.00;101230.25;5064127;28;20039;-75
2022/03/29 06:53:21;;;;;;;32.75;3.92;;;;;;;4.93;100.00;101218.63;5039370;28;20060;-75
2022/03/29 06:55:46;;;;;;;30.48;4.38;;;;;;;4.99;99.44;101218.25;5061310;28;20079;-75
2022/03/29 06:58:12;;;;;;;21.73;3.03;;;;;;;4.84;98.84;101227.88;5033850;28;20136;-76
2022/03/29 07:00:39;;;;;;;25.30;3.58;;;;;;;4.94;99.53;101228.13;5034459;28;20040;-75
2022/03/29 07:03:05;;;;;;;34.10;4.18;;;;;;;5.01;98.34;101234.59;5051620;28;20059;-76
2022/03/29 07:05:30;;;;;;;33.08;4.20;;;;;;;5.08;97.83;101237.63;5047434;28;20127;-76
2022/03/29 07:07:56;;;;;;;29.63;3.95;;;;;;;5.15;96.62;101235.47;5026895;28;20041;-75
2022/03/29 07:13:06;;;;;;;25.00;3.38;;;;;;;5.25;94.31;101241.72;5061923;28;20036;-76
2022/03/29 07:15:31;;;;;;;23.83;2.78;;;;;;;5.42;95.79;101238.03;5031224;28;20086;-76
2022/03/29 07:17:59;;;;;;;24.95;3.28;;;;;;;5.59;95.41;101240.34;5063478;28;20029;-75
2022/03/29 07:20:25;;;;;;;31.60;3.35;;;;;;;5.57;94.74;101242.22;5035378;28;20042;-76
2022/03/29 07:22:52;;;;;;;27.13;4.43;;;;;;;5.67;94.29;101232.06;5030288;28;20048;-76
2022/03/29 07:25:19;;;;;;;26.30;4.03;;;;;;;5.63;94.30;101226.22;5063234;28;20044;-75
2022/03/29 07:27:46;;;;;;;30.00;3.42;;;;;;;5.47;94.76;101228.16;5068867;28;20052;-75
2022/03/29 07:30:12;;;;;;;28.48;4.50;;;;;;;5.33;92.99;101223.03;5032244;28;20036;-76
2022/03/29 07:32:44;;;;;;;22.73;3.17;;;;;;;5.24;94.19;101227.91;5042246;28;20040;-75
2022/03/29 07:35:10;;;;;;;29.05;3.58;;;;;;;5.45;93.33;101223.06;5037723;28;20048;-74
2022/03/29 07:37:35;;;;;;;19.90;3.65;;;;;;;5.63;92.37;101228.81;5062616;28;20124;-75
2022/03/29 07:40:01;;;;;;;20.48;2.60;;;;;;;5.89;92.16;101228.81;5051098;28;20482;-75
2022/03/29 07:42:27;;;;;;;20.88;3.45;;;;;;;6.06;88.66;101224.25;5048966;28;20127;-75
2022/03/29 07:44:53;;;;;;;25.33;3.60;;;;;;;6.04;89.92;101225.19;5048212;28;20032;-74
2022/03/29 07:47:19;;;;;;;19.95;3.30;;;;;;;6.10;89.41;101233.53;5061946;28;20044;-75
2022/03/29 07:49:46;;;;;;;30.95;3.47;;;;;;;6.26;88.32;101244.56;5050112;28;20059;-73
2022/03/29 07:52:13;;;;;;;25.50;2.90;;;;;;;6.20;86.22;101214.56;5027003;28;20024;-74
2022/03/29 07:54:39;;;;;;;18.25;2.40;;;;;;;6.19;86.01;101230.28;5063496;28;20414;-75
2022/03/29 07:57:08;;;;;;;18.17;2.95;;;;;;;6.26;86.06;101228.09;5049293;28;20040;-74
2022/03/29 07:59:40;;;;;;;21.40;3.05;;;;;;;6.30;87.03;101213.91;5027924;28;20040;-74
2022/03/29 08:02:05;;;;;;;12.60;2.03;;;;;;;6.12;85.72;101224.69;5064002;28;20124;-74
2022/03/29 08:04:32;;;;;;;22.20;3.00;;;;;;;6.03;86.75;101218.31;5063799;28;20836;-74
2022/03/29 08:06:58;;;;;;;22.30;3.67;;;;;;;6.02;88.47;101224.47;5049070;28;20580;-75
2022/03/29 08:09:26;;;;;;;16.63;2.63;;;;;;;6.28;87.46;101221.84;5050500;28;20047;-73
2022/03/29 08:11:51;;;;;;;22.23;3.15;;;;;;;6.46;85.38;101224.94;5061559;28;20035;-74
2022/03/29 08:14:18;;;;;;;17.83;2.47;;;;;;;6.35;85.14;101214.44;5043195;28;20390;-74
2022/03/29 08:16:44;;;;;;;30.27;2.97;;;;;;;6.38;84.40;101222.03;5040656;28;20045;-74
2022/03/29 08:19:09;;;;;;;22.70;3.00;;;;;;;6.24;83.53;101217.78;5019754;28;20157;-74
2022/03/29 08:21:50;;;;;;;22.45;2.58;;;;;;;6.37;83.31;101213.38;5028064;28;20033;-74
2022/03/29 08:24:23;;;;;;;28.63;3.65;;;;;;;6.68;82.77;101218.19;5027054;28;20036;-74
2022/03/29 08:26:51;;;;;;;18.20;2.60;;;;;;;6.82;80.56;101210.22;5046716;28;20113;-75
2022/03/29 08:29:18;;;;;;;13.45;2.22;;;;;;;7.09;80.18;101203.94;5058964;28;20390;-74
2022/03/29 08:31:47;;;;;;;16.65;2.90;;;;;;;7.27;78.55;101207.81;5060588;28;20071;-75
2022/03/29 08:34:13;;;;;;;21.02;3.22;;;;;;;7.14;77.99;101210.50;5060919;28;20031;-73
2022/03/29 08:36:39;;;;;;;26.75;3.50;;;;;;;7.24;78.54;101207.22;5047015;28;20037;-74
2022/03/29 08:39:06;;;;;;;20.98;2.50;;;;;;;6.90;78.80;101199.25;5056149;28;20021;-76
2022/03/29 08:41:44;;;;;;;24.33;2.58;;;;;;;6.56;79.81;101194.66;5045949;28;20036;-75
2022/03/29 08:44:10;;;;;;;17.73;3.10;;;;;;;6.64;78.73;101186.31;5046932;28;20028;-74
2022/03/29 08:46:42;;;;;;;21.40;3.35;;;;;;;6.93;78.52;101185.97;5063197;28;20041;-74
2022/03/29 08:49:10;;;;;;;14.90;2.60;;;;;;;7.11;76.51;101183.78;5049079;28;20024;-74
2022/03/29 08:51:37;;;;;;;18.10;2.90;;;;;;;7.28;77.29;101195.59;5031956;28;20406;-74
2022/03/29 08:54:03;;;;;;;18.20;2.70;;;;;;;7.43;74.77;101186.63;5064418;28;20029;-73
2022/03/29 08:56:29;;;;;;;22.77;2.65;;;;;;;7.47;74.46;101185.44;5049238;28;20041;-74
2022/03/29 08:58:54;;;;;;;15.23;2.80;;;;;;;7.46;74.29;101178.56;5065953;28;20394;-75
2022/03/29 09:01:21;;;;;;;21.73;2.92;;;;;;;7.44;75.17;101187.44;5051531;28;20029;-75
2022/03/29 09:04:06;;;;;;;19.02;3.08;;;;;;;7.32;76.69;101176.97;5056369;28;20036;-73
2022/03/29 09:06:31;;;;;;;14.43;2.30;;;;;;;7.75;76.70;101181.56;5064651;28;20377;-75
2022/03/29 09:08:57;;;;;;;10.77;1.80;;;;;;;7.94;72.12;101169.69;5032360;28;20393;-75
2022/03/29 09:11:23;;;;;;;15.82;2.35;;;;;;;7.90;70.66;101179.56;5031875;28;20048;-73
2022/03/29 09:14:04;;;;;;;16.63;2.42;;;;;;;7.67;72.02;101170.06;5047598;28;20039;-75
2022/03/29 09:16:33;;;;;;;12.73;2.42;;;;;;;7.70;71.35;101170.63;5044257;28;20780;-74
2022/03/29 09:18:59;;;;;;;16.15;2.42;;;;;;;7.79;73.66;101177.75;5054541;28;20040;-75
2022/03/29 09:21:25;;;;;;;12.57;2.45;;;;;;;7.79;72.75;101177.75;5045509;28;20044;-74
2022/03/29 09:24:16;;;;;;;12.82;1.92;;;;;;;7.78;72.75;101176.09;5065881;28;20428;-75
2022/03/29 09:26:51;;;;;;;21.58;2.47;;;;;;;8.09;72.28;101171.13;5065765;28;20040;-76
2022/03/29 09:29:19;;;;;;;14.52;2.38;;;;;;;8.14;71.43;101174.22;5065835;28;20123;-74
2022/03/29 09:31:47;;;;;;;16.98;2.40;;;;;;;8.32;71.86;101168.47;5061514;28;20032;-74
2022/03/29 09:34:23;;;;;;;15.55;2.20;;;;;;;8.37;72.23;101175.00;5025315;28;20825;-74
2022/03/29 09:36:51;;;;;;;15.20;2.42;;;;;;;8.48;70.66;101171.56;5056062;28;20032;-76
2022/03/29 09:39:29;;;;;;;16.73;2.20;;;;;;;8.48;69.54;101170.75;5060790;28;20040;-73
2022/03/29 09:42:00;;;;;;;17.08;2.58;;;;;;;8.61;68.76;101158.34;5055756;28;20036;-74
2022/03/29 09:44:44;;;;;;;13.13;2.08;;;;;;;8.48;68.37;101168.97;5034419;28;20035;-76
2022/03/29 09:47:15;;;;;;;12.52;2.17;;;;;;;8.63;68.39;101153.00;5048202;28;20135;-75
2022/03/29 09:49:55;;;;;;;12.75;2.53;;;;;;;8.69;67.03;101162.97;5055106;28;20043;-73
2022/03/29 09:52:42;;;;;;;10.43;1.98;;;;;;;8.44;65.74;101162.31;5040625;28;20036;-76
2022/03/29 09:55:15;;;;;;;12.20;1.88;;;;;;;8.63;68.13;101143.38;5025725;28;20047;-74
2022/03/29 09:57:44;;;;;;;15.80;2.25;;;;;;;8.71;67.67;101142.75;5036641;28;20159;-75
2022/03/29 10:00:16;;;;;;;22.50;2.53;;;;;;;8.80;66.37;101144.63;5051313;28;20071;-74
2022/03/29 10:02:45;;;;;;;14.68;2.38;;;;;;;8.80;66.52;101144.63;5052512;28;20036;-76
2022/03/29 10:05:13;;;;;;;12.88;2.22;;;;;;;8.84;65.53;101132.94;5045688;28;20025;-76
2022/03/29 10:09:25;;;;;;;12.77;2.10;;;;;;;9.14;66.20;101147.06;5036047;28;20047;-74
2022/03/29 10:10:46;;;;;;;16.42;2.25;;;;;;;9.31;62.21;101143.88;5063022;28;20044;-76
2022/03/29 10:13:12;;;;;;;15.65;2.35;;;;;;;9.20;63.03;101140.50;5045323;28;20025;-76
2022/03/29 10:15:40;;;;;;;11.55;2.13;;;;;;;9.18;64.90;101140.63;5062139;28;20848;-76
2022/03/29 10:18:07;;;;;;;9.25;1.55;;;;;;;9.08;63.98;101132.72;5045810;28;20036;-76
2022/03/29 10:20:33;;;;;;;16.48;2.38;;;;;;;9.08;65.48;101135.34;5042919;28;20032;-75
2022/03/29 10:22:59;;;;;;;21.35;2.10;;;;;;;9.25;61.97;101125.22;5066440;28;20135;-76
2022/03/29 10:25:26;;;;;;;16.75;2.45;;;;;;;9.29;63.04;101131.88;5050323;28;20838;-75
2022/03/29 10:27:54;;;;;;;11.70;2.33;;;;;;;9.42;61.64;101129.91;5045869;28;20032;-74
2022/03/29 10:30:37;;;;;;;10.18;1.83;;;;;;;9.65;62.46;101121.88;5065869;28;20032;-76
2022/03/29 10:33:24;;;;;;;;;;;;;;;9.86;62.53;101127.06;5029788;28;20505;-72
2022/03/29 10:35:59;;;;;;;9.90;2.40;;;;;;;9.84;61.95;101134.22;5048235;28;19919;-74
2022/03/29 10:38:43;;;;;;;9.48;1.55;;;;;;;10.07;61.73;101125.19;5050072;28;20032;-75
2022/03/29 10:41:30;;;;;;;11.20;1.67;;;;;;;10.19;61.32;101128.53;5046992;28;20397;-74
2022/03/29 10:44:04;;;;;;;12.43;2.33;;;;;;;10.30;58.47;101125.84;5051407;28;20067;-75
2022/03/29 10:46:47;;;;;;;14.52;2.15;;;;;;;10.37;60.00;101114.81;5059371;28;20115;-75
2022/03/29 10:49:22;;;;;;;10.45;1.75;;;;;;;10.19;57.60;101114.59;5045560;28;20116;-73
2022/03/29 10:52:07;;;;;;;12.50;2.20;;;;;;;10.22;60.74;101123.00;5046516;28;20037;-75
2022/03/29 10:54:43;;;;;;;12.15;1.85;;;;;;;9.98;58.81;101112.06;5066488;28;20082;-73
2022/03/29 10:57:25;;;;;;;10.88;1.90;;;;;;;9.79;58.67;101099.72;5044965;28;20052;-75
2022/03/29 11:00:06;;;;;;;9.57;2.10;;;;;;;10.13;61.05;101090.59;5037393;28;20051;-76
2022/03/29 11:02:32;;;;;;;15.38;2.00;;;;;;;10.20;58.44;101090.88;5058263;28;20040;-75
2022/03/29 11:05:08;;;;;;;9.85;1.67;;;;;;;10.40;59.44;101091.75;5068108;28;20040;-74
2022/03/29 11:07:58;;;;;;;10.48;2.10;;;;;;;10.40;58.01;101093.56;5042256;28;20056;-76
2022/03/29 11:10:44;;;;;;;8.95;1.92;;;;;;;10.87;56.08;101089.28;5058162;28;20386;-75
2022/03/29 11:13:30;;;;;;;11.50;1.92;;;;;;;10.47;53.15;101092.03;5024891;28;20111;-74
2022/03/29 11:16:01;;;;;;;9.95;1.50;;;;;;;10.39;53.31;101086.66;5058625;28;20552;-75
2022/03/29 11:18:38;;;;;;;7.75;1.60;;;;;;;10.69;55.51;101085.69;5060510;28;20033;-75
2022/03/29 11:21:05;;;;;;;12.13;1.80;;;;;;;10.48;56.01;101073.53;5061029;28;20135;-75
2022/03/29 11:23:39;;;;;;;6.35;1.50;;;;;;;10.40;56.44;101073.41;5044621;28;20651;-76
2022/03/29 11:26:06;;;;;;;10.23;1.88;;;;;;;10.38;54.80;101077.97;5062148;28;20058;-74
2022/03/29 11:28:32;;;;;;;8.55;1.73;;;;;;;10.24;56.64;101063.41;5064761;28;20124;-73
2022/03/29 11:30:58;;;;;;;8.02;1.48;;;;;;;10.09;55.51;101070.00;5057356;28;20047;-75